createdAt,value
2018-11-26T00:00:17.777Z,5.26
2018-11-26T00:01:17.762Z,5.27
2018-11-26T00:02:17.747Z,5.30
2018-11-26T00:03:17.732Z,5.24
2018-11-26T00:04:17.714Z,5.17
2018-11-26T00:05:17.702Z,5.11
2018-11-26T00:06:17.685Z,5.15
2018-11-26T00:07:17.670Z,5.20
2018-11-26T00:08:17.655Z,5.17
2018-11-26T00:09:17.641Z,5.27
2018-11-26T00:10:17.624Z,5.23
2018-11-26T00:11:17.610Z,5.22
2018-11-26T00:12:17.594Z,5.19
2018-11-26T00:13:17.578Z,5.17
2018-11-26T00:14:17.565Z,5.09
2018-11-26T00:15:17.552Z,5.15
2018-11-26T00:16:17.536Z,5.14
2018-11-26T00:17:17.520Z,5.15
2018-11-26T00:18:17.508Z,5.05
2018-11-26T00:19:17.492Z,5.04
2018-11-26T00:20:17.474Z,4.96
2018-11-26T00:21:17.460Z,4.93
2018-11-26T00:22:17.445Z,4.88
2018-11-26T00:23:17.431Z,4.93
2018-11-26T00:24:17.416Z,4.88
2018-11-26T00:25:17.399Z,4.91
2018-11-26T00:26:17.382Z,4.91
2018-11-26T00:27:17.367Z,4.93
2018-11-26T00:28:17.355Z,4.84
2018-11-26T00:29:17.336Z,5.05
2018-11-26T00:30:17.323Z,5.08
2018-11-26T00:31:17.309Z,4.97
2018-11-26T00:32:17.291Z,5.04
2018-11-26T00:33:17.277Z,5.12
2018-11-26T00:34:17.260Z,5.23
2018-11-26T00:35:17.247Z,5.22
2018-11-26T00:36:17.232Z,5.17
2018-11-26T00:37:17.214Z,5.20
2018-11-26T00:38:17.199Z,5.20
2018-11-26T00:39:17.186Z,5.08
2018-11-26T00:40:17.171Z,5.04
2018-11-26T00:41:17.155Z,5.05
2018-11-26T00:42:17.145Z,5.08
2018-11-26T00:43:17.123Z,5.05
2018-11-26T00:44:17.108Z,5.02
2018-11-26T00:45:17.092Z,5.01
2018-11-26T00:46:17.077Z,5.05
2018-11-26T00:47:17.063Z,5.02
2018-11-26T00:48:17.048Z,4.96
2018-11-26T00:49:17.033Z,4.93
2018-11-26T00:50:17.033Z,4.88
2018-11-26T00:51:17.004Z,4.87
2018-11-26T00:52:16.987Z,4.87
2018-11-26T00:53:16.973Z,4.90
2018-11-26T00:54:16.957Z,4.88
2018-11-26T00:55:16.946Z,4.87
2018-11-26T00:56:16.928Z,4.90
2018-11-26T00:57:16.909Z,4.91
2018-11-26T00:58:16.896Z,4.77
2018-11-26T00:59:16.883Z,4.77
2018-11-26T01:00:16.866Z,4.80
2018-11-26T01:01:16.849Z,4.79
2018-11-26T01:02:16.836Z,4.72
2018-11-26T01:03:16.818Z,4.69
2018-11-26T01:04:16.805Z,4.71
2018-11-26T01:05:16.794Z,4.75
2018-11-26T01:06:16.772Z,4.61
2018-11-26T01:07:16.756Z,4.75
2018-11-26T01:08:16.749Z,4.77
2018-11-26T01:09:16.724Z,4.84
2018-11-26T01:10:16.712Z,4.87
2018-11-26T01:11:16.694Z,4.79
2018-11-26T01:12:16.680Z,4.88
2018-11-26T01:13:16.663Z,4.84
2018-11-26T01:14:16.648Z,4.88
2018-11-26T01:15:16.631Z,4.84
2018-11-26T01:16:16.617Z,4.86
2018-11-26T01:17:16.600Z,4.90
2018-11-26T01:18:16.586Z,4.99
2018-11-26T01:19:16.571Z,4.97
2018-11-26T01:20:16.565Z,4.91
2018-11-26T01:21:16.539Z,4.97
2018-11-26T01:22:16.526Z,4.99
2018-11-26T01:23:16.511Z,4.97
2018-11-26T01:24:16.498Z,4.96
2018-11-26T01:25:16.478Z,4.97
2018-11-26T01:26:16.463Z,4.97
2018-11-26T01:27:16.450Z,4.94
2018-11-26T01:28:16.442Z,4.84
2018-11-26T01:29:16.416Z,4.79
2018-11-26T01:30:16.406Z,4.80
2018-11-26T01:31:16.387Z,4.87
2018-11-26T01:32:16.372Z,4.88
2018-11-26T01:33:16.356Z,4.84
2018-11-26T01:34:16.343Z,4.88
2018-11-26T01:35:16.326Z,4.94
2018-11-26T01:36:16.311Z,4.93
2018-11-26T01:37:16.334Z,5.04
2018-11-26T01:38:16.280Z,5.01
2018-11-26T01:39:16.268Z,5.08
2018-11-26T01:40:16.254Z,4.96
2018-11-26T01:41:16.237Z,4.97
2018-11-26T01:42:16.219Z,4.94
2018-11-26T01:43:16.204Z,5.08
2018-11-26T01:44:16.192Z,5.11
2018-11-26T01:45:16.175Z,5.15
2018-11-26T01:46:16.162Z,5.20
2018-11-26T01:47:16.144Z,5.27
2018-11-26T01:48:16.129Z,5.40
2018-11-26T01:49:16.114Z,5.33
2018-11-26T01:50:16.099Z,5.44
2018-11-26T01:51:16.083Z,5.30
2018-11-26T01:52:16.070Z,5.35
2018-11-26T01:53:16.055Z,5.35
2018-11-26T01:54:16.039Z,5.20
2018-11-26T01:55:16.021Z,5.24
2018-11-26T01:56:16.007Z,5.14
2018-11-26T01:57:15.992Z,5.23
2018-11-26T01:58:15.978Z,5.24
2018-11-26T01:59:15.960Z,5.27
2018-11-26T02:00:15.947Z,5.24
2018-11-26T02:01:15.936Z,5.27
2018-11-26T02:02:15.918Z,5.20
2018-11-26T02:03:15.902Z,5.22
2018-11-26T02:04:15.887Z,5.12
2018-11-26T02:05:15.873Z,5.19
2018-11-26T02:06:15.858Z,5.11
2018-11-26T02:07:15.842Z,5.11
2018-11-26T02:08:15.827Z,5.15
2018-11-26T02:09:15.812Z,5.04
2018-11-26T02:10:15.801Z,5.02
2018-11-26T02:11:15.782Z,5.17
2018-11-26T02:12:15.768Z,5.11
2018-11-26T02:13:15.752Z,5.17
2018-11-26T02:14:15.737Z,5.17
2018-11-26T02:15:15.724Z,5.24
2018-11-26T02:16:15.712Z,5.20
2018-11-26T02:17:15.692Z,5.24
2018-11-26T02:18:15.678Z,5.27
2018-11-26T02:19:15.661Z,5.24
2018-11-26T02:20:15.648Z,5.23
2018-11-26T02:21:15.632Z,5.20
2018-11-26T02:22:15.616Z,5.26
2018-11-26T02:23:15.602Z,5.23
2018-11-26T02:24:15.590Z,5.23
2018-11-26T02:25:15.570Z,5.23
2018-11-26T02:26:15.557Z,5.17
2018-11-26T02:27:15.544Z,5.20
2018-11-26T02:28:15.526Z,5.23
2018-11-26T02:29:15.513Z,5.22
2018-11-26T02:30:15.498Z,5.14
2018-11-26T02:31:15.483Z,5.27
2018-11-26T02:32:15.469Z,5.20
2018-11-26T02:33:15.451Z,5.22
2018-11-26T02:34:15.440Z,5.22
2018-11-26T02:35:15.423Z,5.22
2018-11-26T02:36:15.407Z,5.29
2018-11-26T02:37:15.394Z,5.27
2018-11-26T02:38:15.378Z,5.22
2018-11-26T02:39:15.364Z,5.35
2018-11-26T02:40:15.350Z,5.27
2018-11-26T02:41:15.334Z,5.30
2018-11-26T02:42:15.322Z,5.27
2018-11-26T02:43:15.303Z,5.24
2018-11-26T02:44:15.288Z,5.22
2018-11-26T02:45:15.275Z,5.17
2018-11-26T02:46:15.259Z,5.24
2018-11-26T02:47:15.247Z,5.12
2018-11-26T02:48:15.235Z,5.06
2018-11-26T02:49:15.216Z,5.02
2018-11-26T02:50:15.199Z,5.09
2018-11-26T02:51:15.190Z,5.09
2018-11-26T02:52:15.170Z,4.97
2018-11-26T02:53:15.156Z,4.93
2018-11-26T02:54:15.138Z,5.01
2018-11-26T02:55:15.124Z,4.93
2018-11-26T02:56:15.111Z,4.96
2018-11-26T02:57:15.093Z,5.06
2018-11-26T02:58:15.086Z,5.23
2018-11-26T02:59:15.065Z,5.14
2018-11-26T03:00:15.051Z,5.20
2018-11-26T03:01:15.035Z,5.29
2018-11-26T03:02:15.021Z,5.30
2018-11-26T03:03:15.007Z,5.40
2018-11-26T03:04:15.002Z,5.38
2018-11-26T03:05:14.974Z,5.32
2018-11-26T03:06:14.960Z,5.30
2018-11-26T03:07:14.954Z,5.40
2018-11-26T03:08:14.932Z,5.49
2018-11-26T03:09:14.914Z,5.47
2018-11-26T03:10:14.899Z,5.42
2018-11-26T03:11:14.893Z,5.35
2018-11-26T03:12:14.870Z,5.40
2018-11-26T03:13:14.855Z,5.40
2018-11-26T03:14:14.842Z,5.29
2018-11-26T03:15:14.840Z,5.30
2018-11-26T03:16:14.811Z,5.24
2018-11-26T03:17:14.795Z,5.22
2018-11-26T03:18:14.782Z,5.22
2018-11-26T03:19:14.770Z,5.24
2018-11-26T03:20:14.763Z,5.29
2018-11-26T03:21:14.735Z,5.35
2018-11-26T03:22:14.723Z,5.37
2018-11-26T03:23:14.716Z,5.40
2018-11-26T03:24:14.693Z,5.27
2018-11-26T03:25:14.677Z,5.35
2018-11-26T03:26:14.660Z,5.20
2018-11-26T03:27:14.647Z,5.12
2018-11-26T03:28:14.632Z,5.20
2018-11-26T03:29:14.616Z,5.20
2018-11-26T03:30:14.600Z,5.17
2018-11-26T03:31:14.588Z,5.14
2018-11-26T03:32:14.572Z,5.15
2018-11-26T03:33:14.556Z,5.06
2018-11-26T03:34:14.542Z,5.06
2018-11-26T03:35:14.527Z,5.12
2018-11-26T03:36:14.514Z,5.05
2018-11-26T03:37:14.501Z,5.06
2018-11-26T03:38:14.483Z,4.99
2018-11-26T03:39:14.470Z,4.96
2018-11-26T03:40:14.453Z,4.97
2018-11-26T03:41:14.440Z,4.94
2018-11-26T03:42:14.424Z,4.96
2018-11-26T03:43:14.409Z,4.96
2018-11-26T03:44:14.392Z,4.94
2018-11-26T03:45:14.379Z,4.94
2018-11-26T03:46:14.365Z,4.87
2018-11-26T03:47:14.347Z,4.87
2018-11-26T03:48:14.336Z,4.87
2018-11-26T03:49:14.318Z,4.97
2018-11-26T03:50:14.306Z,4.86
2018-11-26T03:51:14.292Z,4.88
2018-11-26T03:52:14.281Z,4.88
2018-11-26T03:53:14.260Z,4.84
2018-11-26T03:54:14.247Z,4.94
2018-11-26T03:55:14.231Z,4.83
2018-11-26T03:56:14.215Z,4.84
2018-11-26T03:57:14.203Z,4.86
2018-11-26T03:58:14.188Z,4.84
2018-11-26T03:59:14.171Z,4.80
2018-11-26T04:00:14.158Z,4.87
2018-11-26T04:01:14.139Z,4.86
2018-11-26T04:02:14.126Z,4.86
2018-11-26T04:03:14.113Z,4.80
2018-11-26T04:04:14.121Z,4.84
2018-11-26T04:05:14.082Z,4.86
2018-11-26T04:06:14.066Z,4.80
2018-11-26T04:07:14.052Z,4.84
2018-11-26T04:08:14.035Z,4.80
2018-11-26T04:09:14.024Z,4.79
2018-11-26T04:10:14.008Z,4.88
2018-11-26T04:11:13.997Z,4.80
2018-11-26T04:12:13.977Z,4.84
2018-11-26T04:13:13.963Z,4.84
2018-11-26T04:14:13.946Z,4.84
2018-11-26T04:15:13.931Z,4.83
2018-11-26T04:16:13.916Z,4.84
2018-11-26T04:17:13.902Z,4.80
2018-11-26T04:18:13.893Z,4.83
2018-11-26T04:19:13.871Z,4.84
2018-11-26T04:20:13.860Z,4.84
2018-11-26T04:21:13.843Z,4.84
2018-11-26T04:22:13.828Z,4.88
2018-11-26T04:23:13.814Z,5.04
2018-11-26T04:24:13.799Z,5.04
2018-11-26T04:25:13.783Z,5.24
2018-11-26T04:26:13.767Z,5.32
2018-11-26T04:27:13.755Z,5.35
2018-11-26T04:28:13.737Z,5.40
2018-11-26T04:29:13.736Z,5.38
2018-11-26T04:30:13.716Z,5.29
2018-11-26T04:31:13.692Z,5.27
2018-11-26T04:32:13.680Z,5.30
2018-11-26T04:33:13.664Z,5.35
2018-11-26T04:34:13.649Z,5.35
2018-11-26T04:35:13.633Z,5.17
2018-11-26T04:36:13.620Z,5.27
2018-11-26T04:37:13.603Z,5.26
2018-11-26T04:38:13.591Z,5.24
2018-11-26T04:39:13.574Z,5.30
2018-11-26T04:40:13.561Z,5.32
2018-11-26T04:41:13.544Z,5.29
2018-11-26T04:42:13.531Z,5.37
2018-11-26T04:43:13.516Z,5.38
2018-11-26T04:44:13.501Z,5.38
2018-11-26T04:45:13.488Z,5.30
2018-11-26T04:46:13.470Z,5.26
2018-11-26T04:47:13.458Z,5.20
2018-11-26T04:48:13.442Z,5.20
2018-11-26T04:49:13.427Z,5.24
2018-11-26T04:50:13.416Z,5.22
2018-11-26T04:51:13.397Z,5.26
2018-11-26T04:52:13.381Z,5.27
2018-11-26T04:53:13.369Z,5.14
2018-11-26T04:54:13.354Z,5.12
2018-11-26T04:55:13.339Z,5.14
2018-11-26T04:56:13.323Z,5.09
2018-11-26T04:57:13.307Z,5.04
2018-11-26T04:58:13.294Z,5.05
2018-11-26T04:59:13.279Z,5.08
2018-11-26T05:00:13.268Z,5.05
2018-11-26T05:01:13.249Z,5.04
2018-11-26T05:02:13.238Z,5.05
2018-11-26T05:03:13.221Z,5.04
2018-11-26T05:04:13.205Z,5.11
2018-11-26T05:05:13.201Z,5.06
2018-11-26T05:06:13.176Z,5.09
2018-11-26T05:07:13.159Z,5.05
2018-11-26T05:08:13.147Z,5.08
2018-11-26T05:09:13.129Z,5.12
2018-11-26T05:10:13.122Z,5.22
2018-11-26T05:11:13.103Z,5.14
2018-11-26T05:12:13.088Z,5.17
2018-11-26T05:13:13.073Z,5.11
2018-11-26T05:14:13.055Z,5.09
2018-11-26T05:15:13.045Z,5.11
2018-11-26T05:16:13.028Z,5.23
2018-11-26T05:17:13.012Z,5.05
2018-11-26T05:18:12.997Z,5.15
2018-11-26T05:19:12.983Z,5.11
2018-11-26T05:20:12.967Z,5.22
2018-11-26T05:21:12.953Z,5.35
2018-11-26T05:22:12.939Z,5.22
2018-11-26T05:23:12.923Z,5.24
2018-11-26T05:24:12.910Z,5.26
2018-11-26T05:25:12.976Z,5.22
2018-11-26T05:26:12.879Z,5.32
2018-11-26T05:27:12.862Z,5.29
2018-11-26T05:28:12.848Z,5.32
2018-11-26T05:29:12.834Z,5.27
2018-11-26T05:30:12.820Z,5.26
2018-11-26T05:31:12.805Z,5.15
2018-11-26T05:32:12.791Z,5.19
2018-11-26T05:33:12.771Z,5.17
2018-11-26T05:34:12.759Z,5.19
2018-11-26T05:35:12.745Z,5.20
2018-11-26T05:36:12.727Z,5.12
2018-11-26T05:37:12.713Z,5.17
2018-11-26T05:38:12.702Z,5.11
2018-11-26T05:39:12.683Z,5.09
2018-11-26T05:40:12.669Z,5.09
2018-11-26T05:41:12.655Z,5.15
2018-11-26T05:42:12.637Z,5.17
2018-11-26T05:43:12.627Z,5.14
2018-11-26T05:44:12.608Z,5.23
2018-11-26T05:45:12.598Z,5.22
2018-11-26T05:46:12.581Z,5.24
2018-11-26T05:47:12.568Z,5.22
2018-11-26T05:48:12.550Z,5.22
2018-11-26T05:49:12.534Z,5.27
2018-11-26T05:50:12.519Z,5.23
2018-11-26T05:51:12.508Z,5.33
2018-11-26T05:52:12.492Z,5.27
2018-11-26T05:53:12.476Z,5.29
2018-11-26T05:54:12.462Z,5.29
2018-11-26T05:55:12.450Z,5.23
2018-11-26T05:56:12.431Z,5.27
2018-11-26T05:57:12.415Z,5.14
2018-11-26T05:58:12.400Z,5.27
2018-11-26T05:59:12.387Z,5.24
2018-11-26T06:00:12.373Z,5.23
2018-11-26T06:01:12.358Z,5.32
2018-11-26T06:02:12.341Z,5.29
2018-11-26T06:03:12.326Z,5.30
2018-11-26T06:04:12.314Z,5.37
2018-11-26T06:05:12.300Z,5.42
2018-11-26T06:06:12.283Z,5.38
2018-11-26T06:07:12.269Z,5.42
2018-11-26T06:08:12.254Z,5.40
2018-11-26T06:09:12.244Z,5.37
2018-11-26T06:10:12.222Z,5.45
2018-11-26T06:11:12.208Z,5.32
2018-11-26T06:12:12.198Z,5.40
2018-11-26T06:13:12.177Z,5.42
2018-11-26T06:14:12.163Z,5.32
2018-11-26T06:15:12.151Z,5.42
2018-11-26T06:16:12.138Z,5.40
2018-11-26T06:17:12.135Z,5.40
2018-11-26T06:18:12.103Z,5.35
2018-11-26T06:19:12.087Z,5.27
2018-11-26T06:20:12.073Z,5.29
2018-11-26T06:21:12.059Z,5.32
2018-11-26T06:22:12.043Z,5.41
2018-11-26T06:23:12.032Z,5.37
2018-11-26T06:24:12.014Z,5.37
2018-11-26T06:25:11.999Z,5.41
2018-11-26T06:26:11.988Z,5.40
2018-11-26T06:27:11.970Z,5.40
2018-11-26T06:28:11.957Z,5.42
2018-11-26T06:29:11.940Z,5.40
2018-11-26T06:30:11.926Z,5.38
2018-11-26T06:31:11.912Z,5.41
2018-11-26T06:32:11.896Z,5.30
2018-11-26T06:33:11.880Z,5.22
2018-11-26T06:34:11.865Z,5.23
2018-11-26T06:35:11.851Z,5.37
2018-11-26T06:36:11.839Z,5.38
2018-11-26T06:37:11.824Z,5.38
2018-11-26T06:38:11.807Z,5.33
2018-11-26T06:39:11.793Z,5.40
2018-11-26T06:40:11.778Z,5.42
2018-11-26T06:41:11.768Z,5.27
2018-11-26T06:42:11.748Z,5.33
2018-11-26T06:43:11.732Z,5.30
2018-11-26T06:44:11.720Z,5.37
2018-11-26T06:45:11.710Z,5.40
2018-11-26T06:46:11.687Z,5.35
2018-11-26T06:47:11.674Z,5.45
2018-11-26T06:48:11.662Z,5.45
2018-11-26T06:49:11.642Z,5.55
2018-11-26T06:50:11.629Z,5.45
2018-11-26T06:51:11.613Z,5.41
2018-11-26T06:52:11.598Z,5.42
2018-11-26T06:53:11.581Z,5.44
2018-11-26T06:54:11.569Z,5.35
2018-11-26T06:55:11.555Z,5.37
2018-11-26T06:56:11.537Z,5.30
2018-11-26T06:57:11.522Z,5.24
2018-11-26T06:58:11.507Z,5.19
2018-11-26T06:59:11.492Z,5.17
2018-11-26T07:00:11.478Z,5.19
2018-11-26T07:01:11.461Z,5.22
2018-11-26T07:02:11.448Z,5.23
2018-11-26T07:03:11.431Z,5.22
2018-11-26T07:04:11.417Z,5.22
2018-11-26T07:05:11.402Z,5.19
2018-11-26T07:06:11.394Z,5.19
2018-11-26T07:07:11.371Z,5.23
2018-11-26T07:08:11.357Z,5.22
2018-11-26T07:09:11.341Z,5.23
2018-11-26T07:10:11.331Z,5.23
2018-11-26T07:11:11.315Z,5.27
2018-11-26T07:12:11.297Z,5.32
2018-11-26T07:13:11.282Z,5.22
2018-11-26T07:14:11.267Z,5.26
2018-11-26T07:15:11.252Z,5.30
2018-11-26T07:16:11.239Z,5.20
2018-11-26T07:17:11.227Z,5.26
2018-11-26T07:18:11.208Z,5.24
2018-11-26T07:19:11.194Z,5.20
2018-11-26T07:20:11.181Z,5.33
2018-11-26T07:21:11.165Z,5.37
2018-11-26T07:22:11.150Z,5.40
2018-11-26T07:23:11.133Z,5.33
2018-11-26T07:24:11.121Z,5.42
2018-11-26T07:25:11.104Z,5.41
2018-11-26T07:26:11.092Z,5.40
2018-11-26T07:27:11.073Z,5.35
2018-11-26T07:28:11.059Z,5.41
2018-11-26T07:29:11.044Z,5.38
2018-11-26T07:30:11.029Z,5.40
2018-11-26T07:31:11.016Z,5.32
2018-11-26T07:32:10.999Z,5.32
2018-11-26T07:33:10.984Z,5.41
2018-11-26T07:34:10.975Z,5.42
2018-11-26T07:35:10.964Z,5.42
2018-11-26T07:36:11.508Z,5.33
2018-11-26T07:37:10.925Z,5.40
2018-11-26T07:38:10.911Z,5.37
2018-11-26T07:39:10.897Z,5.27
2018-11-26T07:40:10.880Z,5.37
2018-11-26T07:41:10.864Z,5.35
2018-11-26T07:42:10.854Z,5.40
2018-11-26T07:43:10.835Z,5.35
2018-11-26T07:44:10.820Z,5.45
2018-11-26T07:45:10.806Z,5.37
2018-11-26T07:46:10.793Z,5.41
2018-11-26T07:47:10.779Z,5.35
2018-11-26T07:48:10.761Z,5.29
2018-11-26T07:49:10.745Z,5.27
2018-11-26T07:50:10.729Z,5.23
2018-11-26T07:51:10.714Z,5.14
2018-11-26T07:52:10.700Z,5.11
2018-11-26T07:53:10.687Z,5.14
2018-11-26T07:54:10.673Z,5.19
2018-11-26T07:55:10.653Z,5.08
2018-11-26T07:56:10.641Z,5.15
2018-11-26T07:57:10.622Z,5.20
2018-11-26T07:58:10.611Z,5.19
2018-11-26T07:59:10.595Z,5.14
2018-11-26T08:00:10.579Z,5.22
2018-11-26T08:01:10.565Z,5.24
2018-11-26T08:02:10.548Z,5.30
2018-11-26T08:03:10.535Z,5.38
2018-11-26T08:04:10.520Z,5.40
2018-11-26T08:05:10.504Z,5.47
2018-11-26T08:06:10.492Z,5.45
2018-11-26T08:07:10.473Z,5.44
2018-11-26T08:08:10.458Z,5.42
2018-11-26T08:09:10.441Z,5.48
2018-11-26T08:10:10.428Z,5.48
2018-11-26T08:11:10.412Z,5.29
2018-11-26T08:12:10.398Z,5.35
2018-11-26T08:13:10.381Z,5.45
2018-11-26T08:14:10.365Z,5.37
2018-11-26T08:15:10.350Z,5.40
2018-11-26T08:16:10.336Z,5.44
2018-11-26T08:17:10.320Z,5.42
2018-11-26T08:18:10.304Z,5.49
2018-11-26T08:19:10.294Z,5.45
2018-11-26T08:20:10.274Z,5.47
2018-11-26T08:21:10.259Z,5.41
2018-11-26T08:22:10.243Z,5.44
2018-11-26T08:23:10.233Z,5.51
2018-11-26T08:24:10.214Z,5.49
2018-11-26T08:25:10.196Z,5.51
2018-11-26T08:26:10.183Z,5.56
2018-11-26T08:27:10.172Z,5.59
2018-11-26T08:28:10.153Z,5.62
2018-11-26T08:29:10.137Z,5.52
2018-11-26T08:30:10.123Z,5.56
2018-11-26T08:31:10.107Z,5.69
2018-11-26T08:32:10.093Z,5.60
2018-11-26T08:33:10.080Z,5.59
2018-11-26T08:34:10.064Z,5.66
2018-11-26T08:35:10.049Z,5.77
2018-11-26T08:36:10.035Z,5.73
2018-11-26T08:37:10.015Z,5.83
2018-11-26T08:38:10.001Z,5.90
2018-11-26T08:39:09.987Z,5.81
2018-11-26T08:40:09.974Z,6.01
2018-11-26T08:41:09.956Z,5.92
2018-11-26T08:42:09.941Z,5.95
2018-11-26T08:43:09.926Z,5.88
2018-11-26T08:44:09.916Z,5.78
2018-11-26T08:45:09.894Z,5.87
2018-11-26T08:46:09.921Z,5.80
2018-11-26T08:47:09.865Z,5.77
2018-11-26T08:48:09.852Z,5.74
2018-11-26T08:49:09.835Z,5.70
2018-11-26T08:50:09.820Z,5.74
2018-11-26T08:51:09.806Z,5.75
2018-11-26T08:52:09.793Z,5.87
2018-11-26T08:53:09.806Z,5.80
2018-11-26T08:54:09.759Z,5.83
2018-11-26T08:55:09.745Z,5.93
2018-11-26T08:56:09.729Z,6.02
2018-11-26T08:57:09.714Z,5.87
2018-11-26T08:58:09.700Z,5.87
2018-11-26T08:59:09.686Z,5.84
2018-11-26T09:00:09.675Z,5.83
2018-11-26T09:01:09.656Z,5.84
2018-11-26T09:02:09.639Z,5.88
2018-11-26T09:03:09.626Z,5.85
2018-11-26T09:04:09.612Z,5.84
2018-11-26T09:05:09.593Z,5.74
2018-11-26T09:06:09.582Z,5.81
2018-11-26T09:07:09.568Z,5.80
2018-11-26T09:08:09.549Z,5.93
2018-11-26T09:09:09.533Z,5.84
2018-11-26T09:10:09.521Z,5.84
2018-11-26T09:11:09.507Z,5.95
2018-11-26T09:12:09.493Z,5.95
2018-11-26T09:13:09.476Z,5.95
2018-11-26T09:14:09.459Z,5.95
2018-11-26T09:15:09.447Z,6.02
2018-11-26T09:16:09.429Z,5.90
2018-11-26T09:17:09.416Z,5.93
2018-11-26T09:18:09.401Z,5.96
2018-11-26T09:19:09.386Z,6.11
2018-11-26T09:20:09.372Z,6.11
2018-11-26T09:21:09.355Z,6.17
2018-11-26T09:22:09.341Z,6.21
2018-11-26T09:23:09.324Z,6.19
2018-11-26T09:24:09.312Z,6.25
2018-11-26T09:25:09.297Z,6.33
2018-11-26T09:26:09.284Z,6.35
2018-11-26T09:27:09.815Z,6.36
2018-11-26T09:28:09.250Z,6.32
2018-11-26T09:29:09.235Z,6.33
2018-11-26T09:30:09.222Z,6.39
2018-11-26T09:31:09.208Z,6.27
2018-11-26T09:32:09.191Z,6.33
2018-11-26T09:33:09.175Z,6.20
2018-11-26T09:34:09.164Z,6.21
2018-11-26T09:35:09.146Z,6.20
2018-11-26T09:36:09.134Z,6.14
2018-11-26T09:37:09.118Z,6.13
2018-11-26T09:38:09.102Z,6.19
2018-11-26T09:39:09.088Z,6.21
2018-11-26T09:40:09.075Z,6.19
2018-11-26T09:41:09.057Z,6.16
2018-11-26T09:42:09.043Z,6.28
2018-11-26T09:43:09.029Z,6.27
2018-11-26T09:44:09.016Z,6.24
2018-11-26T09:45:08.999Z,6.21
2018-11-26T09:46:09.032Z,6.20
2018-11-26T09:47:08.970Z,6.25
2018-11-26T09:48:08.955Z,6.16
2018-11-26T09:49:08.941Z,6.17
2018-11-26T09:50:08.927Z,6.14
2018-11-26T09:51:14.113Z,6.14
2018-11-26T09:52:08.898Z,6.20
2018-11-26T09:53:08.882Z,6.17
2018-11-26T09:54:08.869Z,6.08
2018-11-26T09:55:08.854Z,6.08
2018-11-26T09:56:08.839Z,6.03
2018-11-26T09:57:08.825Z,5.99
2018-11-26T09:58:08.810Z,5.96
2018-11-26T09:59:08.796Z,5.95
2018-11-26T10:00:08.781Z,5.99
2018-11-26T10:01:08.764Z,5.99
2018-11-26T10:02:08.751Z,5.95
2018-11-26T10:03:08.740Z,5.95
2018-11-26T10:04:08.732Z,5.93
2018-11-26T10:05:08.709Z,5.98
2018-11-26T10:06:08.694Z,5.92
2018-11-26T10:07:08.679Z,5.99
2018-11-26T10:08:08.664Z,5.87
2018-11-26T10:09:08.652Z,6.01
2018-11-26T10:10:08.640Z,5.93
2018-11-26T10:11:08.621Z,5.98
2018-11-26T10:12:08.606Z,6.01
2018-11-26T10:13:08.590Z,5.99
2018-11-26T10:14:08.577Z,6.03
2018-11-26T10:15:08.561Z,6.11
2018-11-26T10:16:08.548Z,6.05
2018-11-26T10:17:08.533Z,6.03
2018-11-26T10:18:08.519Z,6.10
2018-11-26T10:19:08.504Z,6.08
2018-11-26T10:20:08.489Z,6.03
2018-11-26T10:21:08.475Z,6.14
2018-11-26T10:22:08.458Z,6.08
2018-11-26T10:23:08.444Z,6.13
2018-11-26T10:24:08.433Z,6.16
2018-11-26T10:25:08.416Z,6.02
2018-11-26T10:26:08.401Z,6.17
2018-11-26T10:27:08.386Z,6.16
2018-11-26T10:28:08.372Z,6.21
2018-11-26T10:29:08.358Z,6.16
2018-11-26T10:30:08.344Z,6.14
2018-11-26T10:31:08.328Z,6.08
2018-11-26T10:32:08.314Z,6.03
2018-11-26T10:33:14.697Z,6.19
2018-11-26T10:34:08.284Z,6.06
2018-11-26T10:35:08.270Z,6.17
2018-11-26T10:36:08.256Z,6.17
2018-11-26T10:37:08.240Z,6.19
2018-11-26T10:38:08.226Z,6.13
2018-11-26T10:39:08.213Z,6.20
2018-11-26T10:40:08.198Z,6.17
2018-11-26T10:41:08.183Z,6.14
2018-11-26T10:42:08.168Z,6.20
2018-11-26T10:43:11.669Z,6.14
2018-11-26T10:44:08.142Z,6.24
2018-11-26T10:45:08.129Z,6.17
2018-11-26T10:46:08.109Z,6.19
2018-11-26T10:47:08.099Z,6.05
2018-11-26T10:48:08.083Z,5.96
2018-11-26T10:49:08.067Z,6.05
2018-11-26T10:50:08.053Z,5.93
2018-11-26T10:51:08.039Z,5.99
2018-11-26T10:52:08.023Z,6.16
2018-11-26T10:53:08.163Z,6.11
2018-11-26T10:54:07.997Z,6.06
2018-11-26T10:55:07.982Z,6.05
2018-11-26T10:56:07.975Z,6.08
2018-11-26T10:57:08.099Z,6.14
2018-11-26T10:58:07.937Z,6.20
2018-11-26T10:59:07.927Z,6.20
2018-11-26T11:00:07.910Z,6.32
2018-11-26T11:01:07.897Z,6.27
2018-11-26T11:02:07.879Z,6.33
2018-11-26T11:03:07.867Z,6.32
2018-11-26T11:04:07.849Z,6.48
2018-11-26T11:05:07.836Z,6.46
2018-11-26T11:06:07.822Z,6.46
2018-11-26T11:07:07.810Z,6.48
2018-11-26T11:08:07.795Z,6.33
2018-11-26T11:09:07.777Z,6.33
2018-11-26T11:10:07.763Z,6.40
2018-11-26T11:11:07.750Z,6.35
2018-11-26T11:12:07.734Z,6.50
2018-11-26T11:13:07.722Z,6.39
2018-11-26T11:14:07.706Z,6.35
2018-11-26T11:15:07.694Z,6.35
2018-11-26T11:16:07.678Z,6.32
2018-11-26T11:17:07.663Z,6.25
2018-11-26T11:18:07.650Z,6.30
2018-11-26T11:19:07.635Z,6.24
2018-11-26T11:20:07.621Z,6.24
2018-11-26T11:21:07.605Z,6.35
2018-11-26T11:22:07.591Z,6.40
2018-11-26T11:23:07.578Z,6.54
2018-11-26T11:24:07.564Z,6.42
2018-11-26T11:25:07.548Z,6.58
2018-11-26T11:26:07.535Z,6.53
2018-11-26T11:27:07.519Z,6.65
2018-11-26T11:28:07.506Z,6.58
2018-11-26T11:29:07.490Z,6.55
2018-11-26T11:30:07.477Z,6.55
2018-11-26T11:31:07.467Z,6.58
2018-11-26T11:32:07.448Z,6.54
2018-11-26T11:33:47.776Z,6.58
2018-11-26T11:34:47.763Z,6.53
2018-11-26T11:35:47.749Z,6.55
2018-11-26T11:36:47.736Z,6.51
2018-11-26T11:37:47.719Z,6.53
2018-11-26T11:38:47.705Z,6.64
2018-11-26T11:39:47.693Z,6.61
2018-11-26T11:40:47.678Z,6.68
2018-11-26T11:41:47.662Z,6.53
2018-11-26T11:42:47.646Z,6.55
2018-11-26T11:43:47.634Z,6.53
2018-11-26T11:44:47.619Z,6.45
2018-11-26T11:45:47.603Z,6.43
2018-11-26T11:46:47.591Z,6.24
2018-11-26T11:47:47.576Z,6.19
2018-11-26T11:48:47.562Z,6.08
2018-11-26T11:49:47.549Z,5.96
2018-11-26T11:50:47.534Z,5.87
2018-11-26T11:51:47.517Z,5.77
2018-11-26T11:52:47.505Z,5.84
2018-11-26T11:53:47.491Z,5.87
2018-11-26T11:54:47.482Z,5.85
2018-11-26T11:55:47.461Z,5.95
2018-11-26T11:56:47.451Z,5.95
2018-11-26T11:57:47.433Z,5.95
2018-11-26T11:58:47.416Z,6.08
2018-11-26T11:59:47.403Z,6.14
2018-11-26T12:00:47.397Z,6.20
2018-11-26T12:01:47.372Z,6.32
2018-11-26T12:02:47.357Z,6.21
2018-11-26T12:03:47.345Z,6.38
2018-11-26T12:04:47.331Z,6.45
2018-11-26T12:05:47.317Z,6.53
2018-11-26T12:06:47.299Z,6.60
2018-11-26T12:07:47.285Z,6.40
2018-11-26T12:08:47.272Z,6.48
2018-11-26T12:09:47.257Z,6.40
2018-11-26T12:10:47.242Z,6.40
2018-11-26T12:11:48.140Z,6.35
2018-11-26T12:12:47.217Z,6.39
2018-11-26T12:13:47.202Z,6.21
2018-11-26T12:14:47.184Z,6.21
2018-11-26T12:15:47.179Z,6.19
2018-11-26T12:16:47.157Z,6.19
2018-11-26T12:17:47.141Z,6.19
2018-11-26T12:18:47.126Z,6.19
2018-11-26T12:19:47.113Z,6.19
2018-11-26T12:20:47.099Z,6.13
2018-11-26T12:21:47.084Z,6.16
2018-11-26T12:22:47.070Z,6.14
2018-11-26T12:23:47.056Z,6.08
2018-11-26T12:24:47.040Z,6.03
2018-11-26T12:25:47.028Z,6.13
2018-11-26T12:26:47.011Z,6.11
2018-11-26T12:27:46.997Z,6.20
2018-11-26T12:28:46.983Z,6.16
2018-11-26T12:29:46.967Z,6.21
2018-11-26T12:30:46.957Z,6.08
2018-11-26T12:31:46.939Z,6.24
2018-11-26T12:32:46.925Z,6.11
2018-11-26T12:33:46.914Z,6.25
2018-11-26T12:34:46.897Z,6.39
2018-11-26T12:35:46.882Z,6.24
2018-11-26T12:36:46.865Z,6.32
2018-11-26T12:37:46.852Z,6.33
2018-11-26T12:38:46.838Z,6.25
2018-11-26T12:39:46.822Z,6.30
2018-11-26T12:40:46.811Z,6.30
2018-11-26T12:41:46.794Z,6.40
2018-11-26T12:42:46.780Z,6.46
2018-11-26T12:43:47.160Z,6.46
2018-11-26T12:44:46.751Z,6.48
2018-11-26T12:45:46.734Z,6.45
2018-11-26T12:46:46.723Z,6.40
2018-11-26T12:47:46.707Z,6.48
2018-11-26T12:48:46.693Z,6.40
2018-11-26T12:49:46.680Z,6.43
2018-11-26T12:50:46.666Z,6.36
2018-11-26T12:51:46.653Z,6.36
2018-11-26T12:52:46.639Z,6.35
2018-11-26T12:53:46.623Z,6.25
2018-11-26T12:54:46.608Z,6.30
2018-11-26T12:55:46.595Z,6.28
2018-11-26T12:56:46.579Z,6.19
2018-11-26T12:57:46.565Z,6.16
2018-11-26T12:58:46.552Z,6.17
2018-11-26T12:59:46.540Z,6.19
2018-11-26T13:00:46.526Z,6.17
2018-11-26T13:01:46.511Z,6.21
2018-11-26T13:02:46.497Z,6.20
2018-11-26T13:03:46.481Z,6.14
2018-11-26T13:04:46.467Z,6.05
2018-11-26T13:05:46.451Z,6.03
2018-11-26T13:06:46.438Z,6.19
2018-11-26T13:07:46.423Z,6.13
2018-11-26T13:08:46.410Z,6.08
2018-11-26T13:09:46.395Z,6.20
2018-11-26T13:10:46.381Z,6.16
2018-11-26T13:11:46.372Z,6.02
2018-11-26T13:12:46.353Z,6.05
2018-11-26T13:13:46.340Z,6.03
2018-11-26T13:14:46.325Z,6.06
2018-11-26T13:15:46.313Z,6.08
2018-11-26T13:16:46.298Z,6.08
2018-11-26T13:17:46.284Z,6.08
2018-11-26T13:18:46.269Z,6.05